Time;durP1;ratioP1;P1;durP2;ratioP2;P2;SDS_P1;SDS_P2;PMS_P1;PMS_P2;Temp;Humidity;BMP_temperature;BMP_pressure;BME280_temperature;BME280_humidity;BME280_pressure;Samples;Min_cycle;Max_cycle;Signal;HPM_P1;HPM_P2
2022/07/31 00:00:14;;;;;;;2.70;0.82;;;;;;;30.76;33.85;101969.56;5114471;28;20031;-56
2022/07/31 00:02:43;;;;;;;1.40;0.68;;;;;;;30.74;33.93;101968.66;5114340;28;20064;-49
2022/07/31 00:05:12;;;;;;;1.20;0.88;;;;;;;30.71;33.99;101969.56;5113951;28;20023;-48
2022/07/31 00:07:41;;;;;;;0.73;0.68;;;;;;;30.67;34.49;101966.91;5115057;28;20450;-57
2022/07/31 00:10:09;;;;;;;0.95;0.85;;;;;;;30.66;34.36;101966.03;5113850;28;20482;-50
2022/07/31 00:12:38;;;;;;;0.80;0.70;;;;;;;30.60;34.34;101966.03;5113947;28;20093;-49
2022/07/31 00:15:08;;;;;;;0.98;0.80;;;;;;;30.64;34.64;101973.06;5114008;28;20298;-46
2022/07/31 00:17:39;;;;;;;0.90;0.70;;;;;;;30.63;34.62;101970.44;5114033;28;20027;-47
2022/07/31 00:20:08;;;;;;;0.55;0.55;;;;;;;30.64;34.28;101958.97;5113344;28;20038;-46
2022/07/31 00:22:37;;;;;;;1.05;0.90;;;;;;;30.51;34.58;101945.69;5113872;28;20027;-48
2022/07/31 00:25:06;;;;;;;2.03;0.85;;;;;;;30.57;34.73;101961.59;5113772;28;20092;-57
2022/07/31 00:27:35;;;;;;;1.23;0.60;;;;;;;30.50;34.77;101949.22;5113994;28;20474;-46
2022/07/31 00:30:04;;;;;;;0.93;0.80;;;;;;;30.51;34.75;101958.03;5113892;28;20080;-45
2022/07/31 00:32:33;;;;;;;0.80;0.70;;;;;;;30.53;34.78;101970.38;5114068;28;20024;-48
2022/07/31 00:35:01;;;;;;;1.73;0.68;;;;;;;30.52;34.39;101968.66;5113780;28;20016;-46
2022/07/31 00:37:30;;;;;;;1.15;0.80;;;;;;;30.40;34.35;101944.78;5113660;28;20427;-46
2022/07/31 00:39:59;;;;;;;1.35;0.80;;;;;;;30.45;34.38;101961.56;5113485;28;20020;-48
2022/07/31 00:42:27;;;;;;;0.90;0.88;;;;;;;30.42;34.84;101951.88;5113760;28;20035;-50
2022/07/31 00:44:56;;;;;;;1.02;0.80;;;;;;;30.42;34.96;101967.75;5113710;28;20168;-47
2022/07/31 00:47:24;;;;;;;0.98;0.80;;;;;;;30.44;34.53;101966.00;5113657;28;20027;-48
2022/07/31 00:49:53;;;;;;;3.63;1.02;;;;;;;30.44;34.48;101960.69;5096053;28;20440;-46
2022/07/31 00:52:22;;;;;;;0.80;0.80;;;;;;;30.35;35.20;101960.66;5113845;28;20024;-49
2022/07/31 00:54:50;;;;;;;1.95;0.95;;;;;;;30.36;34.88;101962.44;5114043;28;20043;-47
2022/07/31 00:57:19;;;;;;;1.15;0.90;;;;;;;30.36;35.24;101958.91;5113356;28;20024;-45
2022/07/31 00:59:47;;;;;;;2.08;1.10;;;;;;;30.34;34.91;101968.63;5113156;28;20052;-50
2022/07/31 01:02:16;;;;;;;1.27;1.17;;;;;;;30.25;34.82;101969.50;5113414;28;20110;-46
2022/07/31 01:04:45;;;;;;;2.60;1.02;;;;;;;30.25;35.36;101972.13;5095357;28;20092;-49
2022/07/31 01:07:13;;;;;;;1.20;1.00;;;;;;;30.24;35.21;101968.59;5113107;28;20030;-49
2022/07/31 01:09:42;;;;;;;1.00;0.90;;;;;;;30.27;35.07;101959.78;5113460;28;20028;-49
2022/07/31 01:12:16;;;;;;;0.77;0.77;;;;;;;30.31;34.71;101948.31;5113328;28;20462;-48
2022/07/31 01:14:50;;;;;;;1.13;0.80;;;;;;;30.31;34.87;101951.84;5095708;28;20109;-47
2022/07/31 01:17:22;;;;;;;1.48;1.13;;;;;;;30.29;35.15;101958.00;5096002;28;20482;-48
2022/07/31 01:19:52;;;;;;;1.83;1.15;;;;;;;30.28;35.16;101958.91;5113634;28;20055;-47
2022/07/31 01:22:40;;;;;;;1.30;0.80;;;;;;;30.29;34.87;101961.53;5095233;28;20024;-51
2022/07/31 01:25:31;;;;;;;2.15;1.00;;;;;;;30.22;34.93;101959.75;5107071;28;20126;-48
2022/07/31 01:28:06;;;;;;;1.80;1.25;;;;;;;30.17;35.41;101954.47;5105577;28;20035;-50
2022/07/31 01:30:49;;;;;;;1.27;1.17;;;;;;;30.15;35.42;101953.56;5095332;28;20027;-50
2022/07/31 01:33:23;;;;;;;1.58;1.27;;;;;;;30.19;35.10;101953.59;5095192;28;20397;-47
2022/07/31 01:35:55;;;;;;;1.85;1.23;;;;;;;30.14;35.13;101951.81;5114548;28;20039;-49
2022/07/31 01:38:28;;;;;;;1.73;1.10;;;;;;;30.11;35.33;101954.47;5099304;28;20051;-51
2022/07/31 01:40:59;;;;;;;1.30;1.20;;;;;;;30.11;35.66;101938.59;5098789;28;20111;-48
2022/07/31 01:43:33;;;;;;;3.53;1.42;;;;;;;30.11;35.29;101937.69;5098833;28;20076;-50
2022/07/31 01:46:04;;;;;;;3.75;1.35;;;;;;;30.13;35.43;101946.53;5116704;28;20030;-49
2022/07/31 01:48:33;;;;;;;1.73;1.30;;;;;;;30.10;35.43;101941.22;5099474;28;20482;-48
2022/07/31 01:51:03;;;;;;;1.80;1.40;;;;;;;30.08;35.28;101949.16;5116524;28;20055;-48
2022/07/31 01:53:32;;;;;;;1.63;1.20;;;;;;;30.04;35.38;101942.09;5098768;28;20023;-51
2022/07/31 01:56:00;;;;;;;2.20;1.27;;;;;;;30.09;35.38;101950.94;5098361;28;20023;-56
2022/07/31 01:58:30;;;;;;;1.63;1.40;;;;;;;30.07;35.43;101950.03;5098418;28;20023;-49
2022/07/31 02:01:00;;;;;;;1.42;1.10;;;;;;;30.06;35.54;101952.66;5098515;28;20385;-52
2022/07/31 02:03:29;;;;;;;1.67;1.13;;;;;;;30.04;35.66;101946.47;5116592;28;20020;-48
2022/07/31 02:06:00;;;;;;;1.30;1.17;;;;;;;29.99;35.44;101938.53;5098687;28;20019;-50
2022/07/31 02:08:29;;;;;;;2.03;1.50;;;;;;;30.00;35.34;101945.59;5098446;28;20497;-48
2022/07/31 02:10:58;;;;;;;1.35;1.25;;;;;;;29.98;35.22;101947.34;5098285;28;20036;-51
2022/07/31 02:13:27;;;;;;;1.98;1.40;;;;;;;29.97;35.57;101950.88;5116619;28;20026;-49
2022/07/31 02:15:57;;;;;;;1.90;1.40;;;;;;;30.00;35.47;101954.44;5116170;28;20020;-49
2022/07/31 02:18:27;;;;;;;1.70;1.50;;;;;;;30.01;35.22;101948.25;5098138;28;20024;-45
2022/07/31 02:20:55;;;;;;;1.10;1.00;;;;;;;30.01;35.54;101945.63;5115667;28;20039;-47
2022/07/31 02:23:24;;;;;;;1.50;1.40;;;;;;;30.04;35.40;101946.47;5097893;28;20040;-50
2022/07/31 02:25:53;;;;;;;1.52;1.13;;;;;;;29.95;35.33;101957.91;5115615;28;20035;-49
2022/07/31 02:28:22;;;;;;;1.52;1.20;;;;;;;29.98;35.58;101942.06;5097647;28;20051;-47
2022/07/31 02:30:50;;;;;;;2.58;1.60;;;;;;;29.95;35.43;101947.34;5098250;28;20028;-49
2022/07/31 02:33:21;;;;;;;1.67;1.38;;;;;;;29.96;35.72;101934.13;5116034;28;20024;-45
2022/07/31 02:35:53;;;;;;;1.77;1.40;;;;;;;29.98;35.40;101940.31;5097869;28;20114;-45
2022/07/31 02:38:23;;;;;;;1.65;1.33;;;;;;;29.94;35.39;101933.22;5097824;28;20034;-46
2022/07/31 02:40:55;;;;;;;1.67;1.25;;;;;;;29.91;35.79;101940.25;5115798;28;20031;-58
2022/07/31 02:43:25;;;;;;;1.27;1.17;;;;;;;29.90;35.53;101934.06;5115919;28;20034;-57
2022/07/31 02:45:55;;;;;;;1.85;1.20;;;;;;;29.88;35.59;101937.59;5115353;28;20034;-45
2022/07/31 02:48:24;;;;;;;1.80;1.55;;;;;;;29.87;35.75;101939.34;5115689;28;20420;-50
2022/07/31 02:50:52;;;;;;;1.73;1.20;;;;;;;29.91;35.42;101938.47;5115783;28;20020;-46
2022/07/31 02:53:21;;;;;;;2.53;1.73;;;;;;;29.84;35.49;101932.28;5115192;28;20455;-47
2022/07/31 02:55:50;;;;;;;2.22;1.25;;;;;;;29.83;35.60;101938.47;5097405;28;20030;-45
2022/07/31 02:58:19;;;;;;;2.33;1.63;;;;;;;29.90;35.32;101938.50;5097826;28;20485;-45
2022/07/31 03:00:48;;;;;;;1.95;1.45;;;;;;;29.84;35.45;101932.28;5115365;28;20101;-46
2022/07/31 03:03:16;;;;;;;2.92;1.60;;;;;;;29.85;35.58;101926.13;5097445;28;20360;-48
2022/07/31 03:05:44;;;;;;;1.52;1.27;;;;;;;29.82;35.55;101915.53;5115544;28;20386;-48
2022/07/31 03:08:12;;;;;;;3.05;1.27;;;;;;;29.84;35.79;101916.41;5114822;28;20528;-50
2022/07/31 03:10:41;;;;;;;1.92;1.45;;;;;;;29.79;35.59;101923.44;5114808;28;20031;-49
2022/07/31 03:13:10;;;;;;;1.40;1.30;;;;;;;29.84;35.87;101923.50;5115454;28;20020;-49
2022/07/31 03:15:39;;;;;;;2.17;1.52;;;;;;;29.84;35.64;101923.50;5097161;28;20398;-47
2022/07/31 03:18:13;;;;;;;1.73;1.48;;;;;;;29.79;35.67;101917.28;5097319;28;20385;-48
2022/07/31 03:20:43;;;;;;;2.40;1.63;;;;;;;29.77;35.71;101913.75;5114940;28;20031;-57
2022/07/31 03:23:13;;;;;;;2.20;1.60;;;;;;;29.78;35.63;101916.44;5097158;28;20093;-49
2022/07/31 03:25:42;;;;;;;1.50;1.40;;;;;;;29.73;35.51;101920.81;5114886;28;20488;-49
2022/07/31 03:28:11;;;;;;;2.35;1.63;;;;;;;29.75;35.70;101923.44;5096767;28;20092;-50
2022/07/31 03:30:39;;;;;;;1.50;1.40;;;;;;;29.70;35.89;101913.72;5114884;28;20390;-46
2022/07/31 03:33:08;;;;;;;1.85;1.70;;;;;;;29.68;35.71;101906.66;5115281;28;20153;-48
2022/07/31 03:35:36;;;;;;;4.03;1.75;;;;;;;29.74;35.45;101917.28;5114665;28;20032;-49
2022/07/31 03:38:04;;;;;;;2.20;1.77;;;;;;;29.68;35.66;101907.56;5114294;28;20027;-50
2022/07/31 03:40:33;;;;;;;2.28;1.67;;;;;;;29.66;35.97;101911.06;5114726;28;20106;-57
2022/07/31 03:43:02;;;;;;;2.35;1.75;;;;;;;29.70;35.84;101911.06;5114586;28;20034;-51
2022/07/31 03:45:32;;;;;;;1.92;1.70;;;;;;;29.69;35.79;101908.44;5096469;28;20088;-48
2022/07/31 03:48:01;;;;;;;2.97;1.60;;;;;;;29.69;35.96;101904.06;5096751;28;20024;-47
2022/07/31 03:50:31;;;;;;;2.45;1.52;;;;;;;29.67;35.67;101902.25;5096363;28;20394;-49
2022/07/31 03:52:59;;;;;;;1.98;1.73;;;;;;;29.59;36.15;101890.78;5114578;28;20024;-47
2022/07/31 03:55:29;;;;;;;2.45;1.80;;;;;;;29.62;35.77;101906.66;5096260;28;20073;-57
2022/07/31 03:57:57;;;;;;;1.80;1.55;;;;;;;29.54;35.79;101899.56;5113765;28;20073;-48
2022/07/31 04:00:26;;;;;;;2.47;1.88;;;;;;;29.61;36.11;101900.47;5113616;28;20027;-47
2022/07/31 04:02:56;;;;;;;1.40;1.30;;;;;;;29.50;36.11;101887.22;5096665;28;20055;-47
2022/07/31 04:05:25;;;;;;;2.97;1.77;;;;;;;29.60;35.99;101908.41;5114552;28;20427;-49
2022/07/31 04:07:53;;;;;;;2.40;2.10;;;;;;;29.60;35.82;101906.66;5114420;28;20019;-49
2022/07/31 04:10:22;;;;;;;1.90;1.70;;;;;;;29.66;35.81;101905.78;5114150;28;20028;-46
2022/07/31 04:12:50;;;;;;;2.10;1.77;;;;;;;29.61;35.66;101896.97;5114419;28;20023;-45
2022/07/31 04:15:19;;;;;;;2.30;1.77;;;;;;;29.65;35.71;101901.38;5114520;28;20061;-46
2022/07/31 04:17:48;;;;;;;2.55;1.80;;;;;;;29.61;35.73;101900.47;5114462;28;20107;-45
2022/07/31 04:20:17;;;;;;;2.72;2.10;;;;;;;29.59;35.95;101898.72;5113991;28;20031;-46
2022/07/31 04:22:45;;;;;;;1.98;1.75;;;;;;;29.60;35.98;101900.50;5095830;28;20028;-46
2022/07/31 04:25:14;;;;;;;1.50;1.40;;;;;;;29.59;35.75;101902.22;5114168;28;20428;-49
2022/07/31 04:27:43;;;;;;;3.15;2.20;;;;;;;29.58;35.74;101903.09;5096207;28;20030;-56
2022/07/31 04:30:11;;;;;;;2.03;1.83;;;;;;;29.55;36.06;101900.44;5113854;28;20032;-48
2022/07/31 04:32:40;;;;;;;2.13;1.80;;;;;;;29.55;35.89;101901.34;5113397;28;20378;-49
2022/07/31 04:35:08;;;;;;;2.00;1.80;;;;;;;29.55;35.86;101898.69;5113699;28;20077;-48
2022/07/31 04:37:37;;;;;;;2.72;2.00;;;;;;;29.49;35.90;101895.16;5113778;28;20031;-54
2022/07/31 04:40:06;;;;;;;1.83;1.63;;;;;;;29.51;35.98;101914.56;5113924;28;20076;-48
2022/07/31 04:42:34;;;;;;;2.03;1.80;;;;;;;29.52;35.94;101909.25;5095088;28;20101;-46
2022/07/31 04:45:03;;;;;;;3.00;2.10;;;;;;;29.55;36.14;101905.72;5114094;28;20077;-50
2022/07/31 04:47:31;;;;;;;2.72;2.05;;;;;;;29.55;35.94;101916.31;5113483;28;20051;-48
2022/07/31 04:49:59;;;;;;;2.20;2.00;;;;;;;29.47;35.94;101897.78;5113537;28;20027;-49
2022/07/31 04:52:28;;;;;;;3.30;1.80;;;;;;;29.46;36.14;101901.28;5113200;28;20443;-49
2022/07/31 04:54:57;;;;;;;2.47;2.00;;;;;;;29.49;35.97;101901.31;5113545;28;20031;-49
2022/07/31 04:57:26;;;;;;;2.30;1.85;;;;;;;29.47;36.16;101892.47;5114342;28;20525;-50
2022/07/31 04:59:54;;;;;;;2.63;2.35;;;;;;;29.48;35.72;101898.66;5113434;28;20031;-47
2022/07/31 05:02:23;;;;;;;1.70;1.60;;;;;;;29.47;36.03;101899.53;5114310;28;20024;-48
2022/07/31 05:04:51;;;;;;;2.42;2.00;;;;;;;29.46;36.09;101903.06;5113699;28;20099;-47
2022/07/31 05:07:21;;;;;;;2.35;1.90;;;;;;;29.44;36.10;101903.06;5113399;28;20114;-47
2022/07/31 05:09:49;;;;;;;2.33;1.63;;;;;;;29.46;36.13;101896.00;5114898;28;20478;-48
2022/07/31 05:12:18;;;;;;;2.60;1.77;;;;;;;29.44;36.27;101904.81;5117519;28;20421;-49
2022/07/31 05:14:46;;;;;;;2.30;1.67;;;;;;;29.46;35.82;101898.66;5117547;28;20065;-46
2022/07/31 05:17:15;;;;;;;1.80;1.70;;;;;;;29.50;35.98;101899.56;5117691;28;20315;-48
2022/07/31 05:19:44;;;;;;;2.55;2.28;;;;;;;29.45;36.04;101910.13;5118073;28;20412;-48
2022/07/31 05:22:13;;;;;;;1.70;1.60;;;;;;;29.38;35.92;101909.19;5117330;28;20059;-48
2022/07/31 05:24:41;;;;;;;2.00;1.80;;;;;;;29.43;36.03;101914.50;5099352;28;20447;-48
2022/07/31 05:27:10;;;;;;;2.58;1.70;;;;;;;29.44;35.97;101915.38;5117352;28;20024;-56
2022/07/31 05:29:39;;;;;;;1.92;1.70;;;;;;;29.35;36.32;101918.88;5117057;28;20102;-49
2022/07/31 05:32:07;;;;;;;1.90;1.67;;;;;;;29.38;35.97;101918.88;5116991;28;20232;-47
2022/07/31 05:34:36;;;;;;;3.60;2.13;;;;;;;29.34;36.00;101912.69;5117185;28;20043;-48
2022/07/31 05:37:05;;;;;;;1.90;1.70;;;;;;;29.35;36.26;101910.94;5117330;28;20415;-47
2022/07/31 05:39:33;;;;;;;2.03;1.75;;;;;;;29.37;36.00;101914.47;5117013;28;20187;-47
2022/07/31 05:42:02;;;;;;;3.10;2.17;;;;;;;29.35;36.27;101917.13;5117216;28;20153;-46
2022/07/31 05:44:30;;;;;;;2.58;1.73;;;;;;;29.40;36.11;101923.28;5116631;28;20020;-46
2022/07/31 05:46:58;;;;;;;5.20;1.70;;;;;;;29.33;36.07;101915.28;5116903;28;20386;-48
2022/07/31 05:49:27;;;;;;;1.98;1.75;;;;;;;29.34;35.96;101919.72;5116951;28;20328;-45
2022/07/31 05:51:56;;;;;;;2.15;1.60;;;;;;;29.36;36.00;101918.91;5117040;28;20031;-46
2022/07/31 05:54:24;;;;;;;2.05;1.85;;;;;;;29.33;36.12;101920.59;5117064;28;20431;-54
2022/07/31 05:56:53;;;;;;;2.35;2.03;;;;;;;29.35;36.13;101922.41;5116641;28;20032;-48
2022/07/31 05:59:22;;;;;;;2.25;1.73;;;;;;;29.32;36.24;101913.53;5116781;28;20377;-47
2022/07/31 06:01:51;;;;;;;2.35;1.85;;;;;;;29.34;36.17;101925.00;5116810;28;20051;-57
2022/07/31 06:04:19;;;;;;;2.35;1.92;;;;;;;29.30;36.18;101923.19;5117005;28;20056;-47
2022/07/31 06:06:48;;;;;;;3.05;2.30;;;;;;;29.30;36.21;101917.91;5116674;28;20019;-44
2022/07/31 06:09:16;;;;;;;1.83;1.63;;;;;;;29.26;36.18;101914.38;5116815;28;20034;-48
2022/07/31 06:11:45;;;;;;;2.10;1.90;;;;;;;29.22;36.45;101924.06;5116673;28;20062;-45
2022/07/31 06:14:14;;;;;;;1.92;1.70;;;;;;;29.26;36.43;101927.59;5115912;28;20099;-49
2022/07/31 06:16:44;;;;;;;1.73;1.63;;;;;;;29.28;36.29;101935.56;5116805;28;20023;-46
2022/07/31 06:19:12;;;;;;;1.60;1.50;;;;;;;29.25;36.04;101939.03;5116467;28;20059;-46
2022/07/31 06:21:41;;;;;;;2.40;2.05;;;;;;;29.32;36.12;101934.66;5115687;28;20383;-47
2022/07/31 06:24:09;;;;;;;1.98;1.75;;;;;;;29.28;36.43;101928.50;5115770;28;20247;-46
2022/07/31 06:26:38;;;;;;;2.72;2.22;;;;;;;29.29;36.30;101932.03;5116410;28;20028;-49
2022/07/31 06:29:07;;;;;;;2.00;1.70;;;;;;;29.25;36.24;101931.09;5116481;28;20367;-45
2022/07/31 06:31:36;;;;;;;2.53;1.80;;;;;;;29.19;36.47;101934.59;5115887;28;20022;-46
2022/07/31 06:34:04;;;;;;;2.10;1.90;;;;;;;29.17;36.53;101930.19;5116272;28;20026;-47
2022/07/31 06:36:33;;;;;;;2.88;2.13;;;;;;;29.14;36.57;101920.47;5115359;28;20056;-46
2022/07/31 06:39:02;;;;;;;2.13;1.50;;;;;;;29.13;36.12;101910.78;5098196;28;20038;-47
2022/07/31 06:41:52;;;;;;;2.22;1.60;;;;;;;29.18;36.50;101924.91;5115716;28;20023;-44
2022/07/31 06:44:19;;;;;;;2.58;1.85;;;;;;;29.14;36.12;101922.25;5115765;28;20435;-49
2022/07/31 06:46:48;;;;;;;2.03;1.70;;;;;;;29.24;36.16;101931.97;5115587;28;20024;-49
2022/07/31 06:49:17;;;;;;;2.22;1.90;;;;;;;29.09;36.03;101916.94;5098165;28;20054;-48
2022/07/31 06:51:46;;;;;;;2.10;1.70;;;;;;;29.13;36.35;101925.75;5116184;28;20028;-48
2022/07/31 06:54:15;;;;;;;1.58;1.48;;;;;;;29.04;36.45;101908.09;5115892;28;20111;-45
2022/07/31 06:56:44;;;;;;;2.22;1.83;;;;;;;29.17;36.21;101936.34;5115542;28;20113;-50
2022/07/31 06:59:12;;;;;;;1.90;1.52;;;;;;;29.12;36.29;101935.47;5116069;28;20087;-52
2022/07/31 07:01:41;;;;;;;2.00;1.48;;;;;;;29.01;36.42;101913.34;5115284;28;20031;-46
2022/07/31 07:04:09;;;;;;;1.80;1.70;;;;;;;29.13;36.30;101920.47;5115695;28;20092;-47
2022/07/31 07:06:39;;;;;;;2.10;1.90;;;;;;;29.10;36.36;101926.63;5115366;28;20055;-48
2022/07/31 07:09:07;;;;;;;3.90;2.10;;;;;;;29.12;36.30;101924.88;5115568;28;20058;-48
2022/07/31 07:11:36;;;;;;;1.90;1.65;;;;;;;29.17;36.43;101922.28;5114830;28;20024;-48
2022/07/31 07:14:04;;;;;;;3.45;1.73;;;;;;;29.10;36.59;101924.88;5115105;28;20111;-47
2022/07/31 07:16:33;;;;;;;3.85;1.73;;;;;;;29.10;36.20;101913.44;5115328;28;20050;-49
2022/07/31 07:19:02;;;;;;;3.67;2.20;;;;;;;29.16;36.12;101924.00;5115282;28;20046;-46
2022/07/31 07:21:30;;;;;;;2.88;2.00;;;;;;;29.07;36.46;101918.69;5097078;28;20476;-46
2022/07/31 07:23:59;;;;;;;2.30;1.73;;;;;;;29.07;36.30;101922.19;5114999;28;20046;-48
2022/07/31 07:26:28;;;;;;;2.88;1.92;;;;;;;29.04;36.43;101929.22;5097062;28;20085;-48
2022/07/31 07:28:57;;;;;;;2.40;1.85;;;;;;;29.10;36.41;101926.63;5115259;28;20085;-45
2022/07/31 07:31:25;;;;;;;2.15;1.77;;;;;;;29.07;36.21;101929.25;5114932;28;20027;-47
2022/07/31 07:33:55;;;;;;;4.43;2.00;;;;;;;29.11;36.50;101931.03;5114188;28;20047;-56
2022/07/31 07:36:24;;;;;;;3.05;1.70;;;;;;;29.10;36.04;101937.19;5115246;28;20020;-48
2022/07/31 07:38:54;;;;;;;2.75;1.88;;;;;;;29.11;36.45;101934.56;5115419;28;20024;-50
2022/07/31 07:41:24;;;;;;;3.45;1.95;;;;;;;29.07;36.49;101938.03;5114527;28;20084;-47
2022/07/31 07:43:52;;;;;;;3.00;1.77;;;;;;;29.07;36.35;101947.75;5115220;28;20044;-49
2022/07/31 07:46:22;;;;;;;2.53;1.83;;;;;;;29.06;36.56;101949.47;5114628;28;20030;-48
2022/07/31 07:48:51;;;;;;;2.83;1.70;;;;;;;29.02;36.62;101934.50;5114935;28;20027;-48
2022/07/31 07:51:21;;;;;;;1.95;1.73;;;;;;;29.05;36.17;101938.91;5114908;28;20028;-49
2022/07/31 07:53:49;;;;;;;1.70;1.60;;;;;;;29.07;36.44;101950.38;5115229;28;20020;-56
2022/07/31 07:56:18;;;;;;;1.70;1.60;;;;;;;29.10;36.35;101947.78;5114851;28;20374;-49
2022/07/31 07:58:47;;;;;;;2.30;1.52;;;;;;;29.08;36.36;101950.38;5114357;28;20470;-47
2022/07/31 08:01:16;;;;;;;4.05;1.98;;;;;;;29.12;36.47;101946.03;5114270;28;20084;-47
2022/07/31 08:03:45;;;;;;;1.58;1.30;;;;;;;29.15;36.43;101946.03;5115058;28;20026;-47
2022/07/31 08:06:14;;;;;;;3.33;1.90;;;;;;;29.10;36.30;101943.34;5114568;28;20439;-56
2022/07/31 08:08:42;;;;;;;2.92;1.63;;;;;;;29.10;36.48;101946.00;5114425;28;20058;-49
2022/07/31 08:11:11;;;;;;;2.17;1.75;;;;;;;29.13;36.38;101947.75;5114295;28;20026;-46
2022/07/31 08:13:39;;;;;;;2.63;1.60;;;;;;;29.08;36.49;101939.81;5114655;28;20072;-46
2022/07/31 08:16:08;;;;;;;1.75;1.42;;;;;;;29.10;36.60;101942.50;5096257;28;20027;-47
2022/07/31 08:18:37;;;;;;;2.10;1.77;;;;;;;29.10;36.51;101940.72;5114280;28;20073;-46
2022/07/31 08:21:05;;;;;;;1.88;1.67;;;;;;;29.07;36.54;101938.03;5113570;28;20027;-51
2022/07/31 08:23:34;;;;;;;3.22;1.63;;;;;;;29.09;36.55;101951.28;5114380;28;20529;-46
2022/07/31 08:26:03;;;;;;;3.08;2.15;;;;;;;29.09;36.54;101938.94;5114635;28;20076;-49
2022/07/31 08:28:31;;;;;;;1.42;1.33;;;;;;;29.08;36.71;101939.81;5114045;28;20020;-48
2022/07/31 08:31:00;;;;;;;1.90;1.38;;;;;;;29.11;36.56;101947.78;5114227;28;20052;-45
2022/07/31 08:33:29;;;;;;;1.65;1.55;;;;;;;29.15;36.57;101950.44;5113776;28;20466;-46
2022/07/31 08:35:57;;;;;;;3.05;1.70;;;;;;;29.14;36.67;101946.91;5114160;28;20090;-44
2022/07/31 08:38:26;;;;;;;1.92;1.42;;;;;;;29.20;36.47;101949.59;5113855;28;20024;-49
2022/07/31 08:40:55;;;;;;;2.22;1.48;;;;;;;29.17;36.62;101944.28;5096170;28;20029;-54
2022/07/31 08:43:23;;;;;;;2.42;1.40;;;;;;;29.14;36.55;101936.31;5113676;28;20030;-49
2022/07/31 08:45:52;;;;;;;1.38;1.27;;;;;;;29.10;36.64;101937.19;5113245;28;20084;-47
2022/07/31 08:48:24;;;;;;;2.05;1.50;;;;;;;29.07;36.71;101930.13;5113418;28;20047;-45
2022/07/31 08:50:52;;;;;;;2.40;1.55;;;;;;;29.14;36.64;101938.97;5095369;28;20019;-48
2022/07/31 08:53:22;;;;;;;2.42;1.48;;;;;;;29.10;36.50;101945.13;5113813;28;20039;-48
2022/07/31 08:55:51;;;;;;;1.42;1.10;;;;;;;29.14;36.77;101940.75;5113515;28;20028;-45
2022/07/31 08:58:20;;;;;;;1.80;1.33;;;;;;;29.10;36.66;101930.16;5095361;28;20103;-49
2022/07/31 09:00:48;;;;;;;2.22;1.30;;;;;;;29.17;36.48;101936.34;5113424;28;20550;-50
2022/07/31 09:03:18;;;;;;;1.60;1.42;;;;;;;29.20;36.57;101931.09;5095391;28;20467;-44
2022/07/31 09:05:46;;;;;;;2.03;1.25;;;;;;;29.24;36.50;101934.63;5113238;28;20446;-50
2022/07/31 09:08:15;;;;;;;1.38;1.27;;;;;;;29.21;36.53;101932.84;5113077;28;20364;-45
2022/07/31 09:10:43;;;;;;;3.65;1.40;;;;;;;29.24;36.66;101937.25;5113435;28;20023;-50
2022/07/31 09:13:14;;;;;;;2.28;1.40;;;;;;;29.22;36.70;101929.34;5113977;28;20375;-47
2022/07/31 09:15:43;;;;;;;1.80;1.23;;;;;;;29.22;36.34;101939.00;5113475;28;20063;-46
2022/07/31 09:18:23;;;;;;;1.85;1.40;;;;;;;29.15;36.65;101927.53;5095181;28;20096;-49
2022/07/31 09:21:00;;;;;;;1.33;1.10;;;;;;;29.21;36.80;101932.84;5113414;28;20028;-49
2022/07/31 09:23:31;;;;;;;1.60;0.98;;;;;;;29.19;36.41;101924.03;5095976;28;20130;-45
2022/07/31 09:26:02;;;;;;;1.90;1.45;;;;;;;29.26;36.48;101931.13;5095005;28;20084;-48
2022/07/31 09:28:36;;;;;;;1.55;1.20;;;;;;;29.21;36.45;101932.84;5113135;28;20024;-46
2022/07/31 09:31:06;;;;;;;2.38;1.52;;;;;;;29.31;36.25;101943.47;5113409;28;20028;-45
2022/07/31 09:33:37;;;;;;;2.22;1.63;;;;;;;29.28;36.29;101938.19;5095013;28;20493;-45
2022/07/31 09:36:07;;;;;;;2.65;1.40;;;;;;;29.20;36.92;101938.16;5113318;28;20417;-48
2022/07/31 09:38:38;;;;;;;2.03;1.30;;;;;;;29.29;36.43;101932.03;5113072;28;20419;-47
2022/07/31 09:41:10;;;;;;;2.45;1.40;;;;;;;29.29;36.39;101938.19;5113457;28;20389;-47
2022/07/31 09:43:39;;;;;;;1.70;1.35;;;;;;;29.26;36.50;101939.06;5113456;28;20019;-44
2022/07/31 09:46:08;;;;;;;1.45;1.20;;;;;;;29.31;36.63;101941.72;5113345;28;20028;-48
2022/07/31 09:48:37;;;;;;;1.70;1.20;;;;;;;29.28;36.68;101933.78;5113217;28;20398;-49
2022/07/31 09:51:07;;;;;;;2.25;1.35;;;;;;;29.25;36.74;101939.03;5113348;28;20093;-48
2022/07/31 09:53:56;;;;;;;2.38;1.38;;;;;;;29.21;36.82;101935.50;5113064;28;20031;-46
2022/07/31 09:56:35;;;;;;;1.70;1.30;;;;;;;29.25;36.75;101937.28;5114379;28;20020;-46
2022/07/31 09:59:05;;;;;;;1.98;1.48;;;;;;;29.30;36.70;101931.13;5116797;28;20031;-52
2022/07/31 10:01:35;;;;;;;2.88;1.30;;;;;;;29.22;36.68;101931.09;5116834;28;20382;-49
2022/07/31 10:04:04;;;;;;;1.50;1.20;;;;;;;29.23;36.50;101931.13;5117065;28;20478;-45
2022/07/31 10:06:33;;;;;;;3.05;1.58;;;;;;;29.24;36.55;101929.34;5098839;28;20034;-45
2022/07/31 10:09:04;;;;;;;2.67;1.65;;;;;;;29.28;36.37;101941.69;5098967;28;20489;-45
2022/07/31 10:11:33;;;;;;;1.92;1.10;;;;;;;29.29;36.90;101940.84;5116907;28;20115;-53
2022/07/31 10:14:02;;;;;;;1.63;1.10;;;;;;;29.28;36.79;101946.13;5117064;28;20428;-45
2022/07/31 10:16:34;;;;;;;2.38;1.40;;;;;;;29.29;36.85;101939.97;5098041;28;20035;-49
2022/07/31 10:19:10;;;;;;;1.70;1.30;;;;;;;29.29;36.89;101940.84;5116449;28;20033;-48
2022/07/31 10:21:42;;;;;;;1.40;1.02;;;;;;;29.29;36.81;101942.59;5116327;28;20032;-45
2022/07/31 10:24:11;;;;;;;1.95;1.42;;;;;;;29.30;36.75;101945.25;5115895;28;20048;-47
2022/07/31 10:26:41;;;;;;;2.30;1.40;;;;;;;29.36;36.60;101937.41;5116424;28;20032;-46
2022/07/31 10:29:10;;;;;;;1.60;1.20;;;;;;;29.34;36.40;101928.53;5098871;28;20531;-45
2022/07/31 10:31:39;;;;;;;1.45;1.27;;;;;;;29.35;36.48;101943.56;5115637;28;20028;-46
2022/07/31 10:34:08;;;;;;;1.25;1.15;;;;;;;29.30;36.87;101934.66;5116270;28;20023;-46
2022/07/31 10:36:38;;;;;;;2.25;1.45;;;;;;;29.30;36.48;101936.41;5097977;28;20103;-46
2022/07/31 10:39:31;;;;;;;1.15;1.05;;;;;;;29.34;36.82;101935.56;5098216;28;20028;-46
2022/07/31 10:42:06;;;;;;;1.42;1.33;;;;;;;29.35;36.79;101942.66;5098467;28;20051;-45
2022/07/31 10:44:39;;;;;;;3.47;1.73;;;;;;;29.32;36.58;101942.59;5081616;28;20382;-46
2022/07/31 10:47:13;;;;;;;1.83;1.30;;;;;;;29.31;36.56;101939.09;5116264;28;20023;-47
2022/07/31 10:49:42;;;;;;;1.77;1.40;;;;;;;29.36;36.68;101941.78;5115729;28;20020;-48
2022/07/31 10:52:10;;;;;;;1.30;1.08;;;;;;;29.41;36.59;101940.91;5097789;28;20034;-47
2022/07/31 10:54:44;;;;;;;2.08;1.65;;;;;;;29.38;36.55;101938.25;5115801;28;20061;-47
2022/07/31 10:57:27;;;;;;;2.55;1.30;;;;;;;29.36;36.62;101937.41;5097844;28;20027;-53
2022/07/31 10:59:57;;;;;;;1.30;1.05;;;;;;;29.39;36.51;101926.81;5115261;28;20027;-48
2022/07/31 11:02:31;;;;;;;1.30;1.20;;;;;;;29.39;36.87;101933.88;5080687;28;20475;-46
2022/07/31 11:05:10;;;;;;;1.67;1.10;;;;;;;29.39;36.57;101933.88;5115624;28;20474;-47
2022/07/31 11:07:41;;;;;;;1.05;0.80;;;;;;;29.37;36.83;101927.69;5115499;28;20535;-48
2022/07/31 11:10:20;;;;;;;2.05;1.25;;;;;;;29.38;36.80;101917.13;5115949;28;20065;-48
2022/07/31 11:13:07;;;;;;;3.03;1.17;;;;;;;29.33;36.89;101926.78;5115365;28;20049;-46
2022/07/31 11:15:37;;;;;;;1.67;1.23;;;;;;;29.36;36.56;101915.34;5115569;28;20020;-52
2022/07/31 11:18:12;;;;;;;1.40;1.20;;;;;;;29.41;36.80;101930.34;5115270;28;20386;-47
2022/07/31 11:20:45;;;;;;;1.05;0.95;;;;;;;29.41;36.71;101926.84;5114715;28;20032;-50
2022/07/31 11:23:15;;;;;;;1.35;1.13;;;;;;;29.35;36.60;101906.56;5115406;28;20035;-55
2022/07/31 11:25:46;;;;;;;1.00;0.90;;;;;;;29.49;36.59;101927.75;5115220;28;20057;-48
2022/07/31 11:28:20;;;;;;;1.02;0.82;;;;;;;29.45;36.57;101927.72;5097224;28;20027;-48
2022/07/31 11:30:49;;;;;;;5.65;1.13;;;;;;;29.41;36.89;101938.28;5115252;28;20024;-48
2022/07/31 11:33:29;;;;;;;1.00;0.90;;;;;;;29.39;37.04;101933.88;5115101;28;20110;-48
2022/07/31 11:35:58;;;;;;;1.40;1.10;;;;;;;29.44;36.83;101937.44;5115129;28;20027;-48